JLY1182 SBSG-SBGL
Flight info
| Callsign | JLY1182 |
|---|---|
| Flight time | N/A |
| Altitude | 40000 |
| Route | EDVEG UZ11 MUDSI UN857 MOLSU |
| Aircraft | B789/H-SDE1E2E3FGHIJ2J3J4J5M1RWXY/LB1D1 |
Departure
| Time | N/A |
|---|---|
| Airport | Rio Grande do Norte/São Gonçalo do Amarante–Governador Aluízio Alves International Airport (SBSG) |
Arrival
| Time | 2026-05-03 22:20 |
|---|---|
| Airport | Rio Galeão – Tom Jobim International Airport (SBGL) |
| Time | Latitude | Longitude | Altitude | Speed | Heading |
|---|---|---|---|---|---|
| 2026-05-03 20:15 | -8.87316 | -35.01001 | 29271 ft | 511 kts | 186° |
| 2026-05-03 20:15 | -8.94379 | -35.01796 | 29311 ft | 511 kts | 186° |
| 2026-05-03 20:16 | -9.01458 | -35.02593 | 29352 ft | 512 kts | 187° |
| 2026-05-03 20:16 | -9.08234 | -35.04607 | 29401 ft | 511 kts | 208° |
| 2026-05-03 20:17 | -9.14414 | -35.08149 | 29419 ft | 511 kts | 210° |
| 2026-05-03 20:17 | -9.20586 | -35.11734 | 29427 ft | 512 kts | 210° |
| 2026-05-03 20:18 | -9.26780 | -35.15305 | 29461 ft | 512 kts | 210° |
| 2026-05-03 20:18 | -9.32966 | -35.18892 | 29499 ft | 513 kts | 210° |
| 2026-05-03 20:19 | -9.39168 | -35.22478 | 29528 ft | 513 kts | 210° |
| 2026-05-03 20:19 | -9.45357 | -35.26065 | 29555 ft | 513 kts | 210° |
| 2026-05-03 20:20 | -9.51557 | -35.29655 | 29584 ft | 513 kts | 210° |
| 2026-05-03 20:20 | -9.57757 | -35.33250 | 29605 ft | 514 kts | 210° |
| 2026-05-03 20:21 | -9.63963 | -35.36847 | 29624 ft | 514 kts | 210° |
| 2026-05-03 20:21 | -9.70171 | -35.40449 | 29640 ft | 514 kts | 210° |
| 2026-05-03 20:22 | -9.76338 | -35.44028 | 29656 ft | 514 kts | 210° |
| 2026-05-03 20:22 | -9.82545 | -35.47632 | 29672 ft | 514 kts | 210° |
| 2026-05-03 20:23 | -9.88755 | -35.51238 | 29685 ft | 514 kts | 210° |
| 2026-05-03 20:23 | -9.94968 | -35.54850 | 29702 ft | 515 kts | 210° |
| 2026-05-03 20:24 | -10.01184 | -35.58463 | 29714 ft | 515 kts | 210° |
| 2026-05-03 20:24 | -10.07394 | -35.62074 | 29738 ft | 515 kts | 210° |
| 2026-05-03 20:25 | -10.13615 | -35.65695 | 29743 ft | 515 kts | 210° |
| 2026-05-03 20:25 | -10.19831 | -35.69313 | 29750 ft | 515 kts | 210° |
| 2026-05-03 20:26 | -10.26047 | -35.72933 | 29758 ft | 515 kts | 210° |
| 2026-05-03 20:26 | -10.32263 | -35.76556 | 29767 ft | 515 kts | 210° |
| 2026-05-03 20:27 | -10.38438 | -35.80156 | 29781 ft | 515 kts | 210° |
| 2026-05-03 20:27 | -10.44657 | -35.83782 | 29781 ft | 515 kts | 210° |
| 2026-05-03 20:28 | -10.50876 | -35.87412 | 29795 ft | 515 kts | 210° |
| 2026-05-03 20:28 | -10.57095 | -35.91042 | 29796 ft | 516 kts | 210° |
| 2026-05-03 20:29 | -10.63310 | -35.94672 | 29805 ft | 516 kts | 210° |
| 2026-05-03 20:29 | -10.69535 | -35.98309 | 29812 ft | 516 kts | 210° |
| 2026-05-03 20:30 | -10.75758 | -36.01947 | 29824 ft | 516 kts | 210° |
| 2026-05-03 20:30 | -10.81980 | -36.05586 | 29833 ft | 516 kts | 210° |
| 2026-05-03 20:31 | -10.88199 | -36.09226 | 29839 ft | 516 kts | 210° |
| 2026-05-03 20:31 | -10.94423 | -36.12870 | 29850 ft | 516 kts | 210° |
| 2026-05-03 20:32 | -11.00607 | -36.16492 | 29853 ft | 516 kts | 210° |
| 2026-05-03 20:32 | -11.06828 | -36.20137 | 29873 ft | 516 kts | 210° |
| 2026-05-03 20:33 | -11.13056 | -36.23775 | 29882 ft | 516 kts | 208° |
| 2026-05-03 20:33 | -11.19439 | -36.27106 | 29888 ft | 516 kts | 208° |
| 2026-05-03 20:34 | -11.25819 | -36.30468 | 29889 ft | 516 kts | 207° |
| 2026-05-03 20:34 | -11.32213 | -36.33805 | 29906 ft | 517 kts | 207° |
| 2026-05-03 20:35 | -11.38604 | -36.37167 | 29925 ft | 517 kts | 207° |
| 2026-05-03 20:35 | -11.44999 | -36.40516 | 29945 ft | 517 kts | 207° |
| 2026-05-03 20:36 | -11.51389 | -36.43875 | 29965 ft | 517 kts | 207° |
| 2026-05-03 20:36 | -11.57792 | -36.47235 | 29980 ft | 517 kts | 207° |
| 2026-05-03 20:37 | -11.64193 | -36.50601 | 29999 ft | 518 kts | 207° |
| 2026-05-03 20:37 | -11.70596 | -36.53967 | 30023 ft | 518 kts | 207° |
| 2026-05-03 20:38 | -11.76997 | -36.57334 | 30043 ft | 518 kts | 207° |
| 2026-05-03 20:38 | -11.83406 | -36.60708 | 30063 ft | 518 kts | 207° |
| 2026-05-03 20:39 | -11.89813 | -36.64082 | 30082 ft | 518 kts | 207° |
| 2026-05-03 20:39 | -11.96226 | -36.67461 | 30099 ft | 518 kts | 207° |
| 2026-05-03 20:40 | -12.02637 | -36.70841 | 30121 ft | 519 kts | 207° |
| 2026-05-03 20:40 | -12.09046 | -36.74222 | 30130 ft | 519 kts | 207° |
| 2026-05-03 20:41 | -12.15461 | -36.77607 | 30138 ft | 519 kts | 207° |
| 2026-05-03 20:41 | -12.21878 | -36.80994 | 30152 ft | 519 kts | 207° |
| 2026-05-03 20:42 | -12.28253 | -36.84364 | 30168 ft | 519 kts | 207° |
| 2026-05-03 20:42 | -12.34668 | -36.87755 | 30179 ft | 519 kts | 207° |
| 2026-05-03 20:43 | -12.41089 | -36.91151 | 30200 ft | 519 kts | 207° |
| 2026-05-03 20:43 | -12.47509 | -36.94549 | 30210 ft | 519 kts | 207° |
| 2026-05-03 20:44 | -12.53928 | -36.97948 | 30215 ft | 520 kts | 207° |
| 2026-05-03 20:44 | -12.60348 | -37.01350 | 30224 ft | 520 kts | 207° |
| 2026-05-03 20:45 | -12.66774 | -37.04757 | 30243 ft | 520 kts | 207° |
| 2026-05-03 20:45 | -12.73195 | -37.08162 | 30246 ft | 520 kts | 207° |
| 2026-05-03 20:46 | -12.79619 | -37.11572 | 30254 ft | 520 kts | 207° |
| 2026-05-03 20:46 | -12.86039 | -37.14982 | 30255 ft | 520 kts | 207° |
| 2026-05-03 20:47 | -12.92462 | -37.18395 | 30258 ft | 520 kts | 207° |
| 2026-05-03 20:47 | -12.98886 | -37.21810 | 30262 ft | 520 kts | 207° |
| 2026-05-03 20:48 | -13.05310 | -37.25228 | 30269 ft | 520 kts | 207° |
| 2026-05-03 20:48 | -13.11734 | -37.28647 | 30269 ft | 520 kts | 207° |
| 2026-05-03 20:49 | -13.17070 | -37.31489 | 30271 ft | 520 kts | 207° |
| 2026-05-03 20:49 | -13.23491 | -37.34911 | 30274 ft | 520 kts | 207° |
| 2026-05-03 20:50 | -13.29915 | -37.38336 | 30276 ft | 520 kts | 207° |
| 2026-05-03 20:50 | -13.36337 | -37.41763 | 30278 ft | 520 kts | 207° |
| 2026-05-03 20:51 | -13.42757 | -37.45191 | 30280 ft | 520 kts | 207° |
| 2026-05-03 20:51 | -13.49180 | -37.48622 | 30281 ft | 520 kts | 207° |
| 2026-05-03 20:52 | -13.55604 | -37.52055 | 30300 ft | 520 kts | 207° |
| 2026-05-03 20:52 | -13.62021 | -37.55488 | 30301 ft | 520 kts | 207° |
| 2026-05-03 20:53 | -13.68399 | -37.58901 | 30301 ft | 520 kts | 207° |
| 2026-05-03 20:53 | -13.74826 | -37.62342 | 30302 ft | 520 kts | 207° |
| 2026-05-03 20:54 | -13.81243 | -37.65781 | 30311 ft | 520 kts | 207° |
| 2026-05-03 20:54 | -13.90873 | -37.70945 | 30311 ft | 520 kts | 207° |
| 2026-05-03 20:55 | -13.97287 | -37.74387 | 30311 ft | 520 kts | 207° |
| 2026-05-03 20:55 | -14.03704 | -37.77834 | 30315 ft | 520 kts | 207° |
| 2026-05-03 20:56 | -14.10123 | -37.81283 | 30316 ft | 520 kts | 207° |
| 2026-05-03 20:56 | -14.16538 | -37.84732 | 30317 ft | 520 kts | 207° |
| 2026-05-03 20:57 | -14.22955 | -37.88185 | 30317 ft | 520 kts | 207° |
| 2026-05-03 20:57 | -14.29372 | -37.91640 | 30317 ft | 520 kts | 207° |
| 2026-05-03 20:58 | -14.35785 | -37.95095 | 30318 ft | 520 kts | 207° |
| 2026-05-03 20:58 | -14.42164 | -37.98534 | 30318 ft | 520 kts | 207° |
| 2026-05-03 20:59 | -14.48580 | -38.01995 | 30318 ft | 520 kts | 207° |
| 2026-05-03 20:59 | -14.54989 | -38.05455 | 30318 ft | 520 kts | 207° |
| 2026-05-03 21:00 | -14.60321 | -38.08335 | 30318 ft | 520 kts | 207° |
| 2026-05-03 21:00 | -14.67812 | -38.12384 | 30318 ft | 520 kts | 207° |
| 2026-05-03 21:01 | -14.74226 | -38.15852 | 30319 ft | 520 kts | 207° |
| 2026-05-03 21:01 | -14.80635 | -38.19321 | 30319 ft | 520 kts | 207° |
| 2026-05-03 21:02 | -14.87043 | -38.22792 | 30319 ft | 520 kts | 208° |
| 2026-05-03 21:02 | -14.93456 | -38.26268 | 30319 ft | 520 kts | 208° |
| 2026-05-03 21:03 | -14.99863 | -38.29743 | 30319 ft | 520 kts | 208° |
| 2026-05-03 21:03 | -15.06271 | -38.33221 | 30319 ft | 520 kts | 208° |
| 2026-05-03 21:04 | -15.12667 | -38.36696 | 30319 ft | 519 kts | 208° |
| 2026-05-03 21:04 | -15.19069 | -38.40176 | 30319 ft | 519 kts | 208° |
| 2026-05-03 21:05 | -15.25464 | -38.43655 | 30318 ft | 519 kts | 208° |
| 2026-05-03 21:05 | -15.31857 | -38.47135 | 30318 ft | 519 kts | 208° |
| 2026-05-03 21:06 | -15.38246 | -38.50616 | 30318 ft | 519 kts | 208° |
| 2026-05-03 21:06 | -15.44591 | -38.54075 | 30317 ft | 518 kts | 208° |
| 2026-05-03 21:07 | -15.50975 | -38.57557 | 30317 ft | 518 kts | 208° |
| 2026-05-03 21:07 | -15.57354 | -38.61039 | 30317 ft | 518 kts | 208° |
| 2026-05-03 21:08 | -15.63734 | -38.64525 | 30316 ft | 518 kts | 208° |
| 2026-05-03 21:08 | -15.70103 | -38.68006 | 30316 ft | 518 kts | 208° |
| 2026-05-03 21:09 | -15.76483 | -38.71496 | 30316 ft | 518 kts | 208° |
| 2026-05-03 21:09 | -15.82857 | -38.74986 | 30317 ft | 518 kts | 208° |
| 2026-05-03 21:10 | -15.89232 | -38.78479 | 30317 ft | 518 kts | 208° |
| 2026-05-03 21:10 | -15.95609 | -38.81975 | 30318 ft | 519 kts | 208° |
| 2026-05-03 21:11 | -16.01993 | -38.85477 | 30319 ft | 519 kts | 208° |
| 2026-05-03 21:11 | -16.08384 | -38.88986 | 30320 ft | 519 kts | 208° |
| 2026-05-03 21:12 | -16.14769 | -38.92495 | 30321 ft | 520 kts | 208° |
| 2026-05-03 21:12 | -16.21167 | -38.96013 | 30323 ft | 520 kts | 208° |
| 2026-05-03 21:13 | -16.27592 | -38.99494 | 30326 ft | 521 kts | 206° |
| 2026-05-03 21:13 | -16.33969 | -39.02823 | 31604 ft | 491 kts | 207° |
| 2026-05-03 21:14 | -16.36977 | -39.04434 | 32030 ft | 486 kts | 207° |
| 2026-05-03 21:14 | -16.40004 | -39.06049 | 32021 ft | 489 kts | 207° |
| 2026-05-03 21:14 | -16.43041 | -39.07653 | 32169 ft | 489 kts | 207° |
| 2026-05-03 21:14 | -16.46034 | -39.09326 | 32222 ft | 489 kts | 209° |
| 2026-05-03 21:15 | -16.52057 | -39.12663 | 32387 ft | 491 kts | 208° |
| 2026-05-03 21:15 | -16.58063 | -39.16053 | 32700 ft | 486 kts | 208° |
| 2026-05-03 21:16 | -16.61019 | -39.17722 | 33065 ft | 480 kts | 208° |
| 2026-05-03 21:16 | -16.63953 | -39.19358 | 33425 ft | 476 kts | 208° |
| 2026-05-03 21:16 | -16.66853 | -39.20983 | 33780 ft | 471 kts | 208° |
| 2026-05-03 21:16 | -16.69683 | -39.22580 | 34129 ft | 467 kts | 208° |
| 2026-05-03 21:17 | -16.72523 | -39.24183 | 34481 ft | 463 kts | 208° |
| 2026-05-03 21:17 | -16.74438 | -39.25259 | 34718 ft | 460 kts | 208° |
| 2026-05-03 21:17 | -16.78149 | -39.27344 | 35181 ft | 455 kts | 208° |
| 2026-05-03 21:17 | -16.80922 | -39.28907 | 35530 ft | 451 kts | 208° |
| 2026-05-03 21:18 | -16.83672 | -39.30458 | 35877 ft | 447 kts | 208° |
| 2026-05-03 21:18 | -16.86398 | -39.31994 | 36222 ft | 443 kts | 208° |
| 2026-05-03 21:18 | -16.89096 | -39.33514 | 36565 ft | 439 kts | 208° |
| 2026-05-03 21:18 | -16.91771 | -39.35023 | 36907 ft | 435 kts | 208° |
| 2026-05-03 21:19 | -16.94417 | -39.36516 | 37246 ft | 430 kts | 208° |
| 2026-05-03 21:19 | -16.97038 | -39.37995 | 37583 ft | 426 kts | 208° |
| 2026-05-03 21:19 | -16.99632 | -39.39459 | 37918 ft | 421 kts | 208° |
| 2026-05-03 21:19 | -17.02196 | -39.40907 | 38252 ft | 417 kts | 208° |
| 2026-05-03 21:20 | -17.04731 | -39.42339 | 38582 ft | 412 kts | 208° |
| 2026-05-03 21:20 | -17.07240 | -39.43757 | 38911 ft | 407 kts | 208° |
| 2026-05-03 21:20 | -17.09717 | -39.45157 | 39237 ft | 402 kts | 208° |
| 2026-05-03 21:20 | -17.12161 | -39.46539 | 39560 ft | 397 kts | 208° |
| 2026-05-03 21:21 | -17.14578 | -39.47906 | 39880 ft | 392 kts | 208° |
| 2026-05-03 21:21 | -17.16976 | -39.49262 | 39970 ft | 394 kts | 208° |
| 2026-05-03 21:21 | -17.21836 | -39.52013 | 39990 ft | 401 kts | 208° |
| 2026-05-03 21:22 | -17.26777 | -39.54811 | 40000 ft | 407 kts | 208° |
| 2026-05-03 21:22 | -17.31793 | -39.57654 | 40009 ft | 413 kts | 208° |
| 2026-05-03 21:23 | -17.36877 | -39.60537 | 40012 ft | 419 kts | 208° |
| 2026-05-03 21:23 | -17.42036 | -39.63463 | 40016 ft | 424 kts | 208° |
| 2026-05-03 21:24 | -17.47259 | -39.66429 | 40018 ft | 429 kts | 208° |
| 2026-05-03 21:24 | -17.52511 | -39.69413 | 40016 ft | 435 kts | 208° |
| 2026-05-03 21:25 | -17.57860 | -39.72454 | 40010 ft | 440 kts | 208° |
| 2026-05-03 21:25 | -17.63278 | -39.75536 | 40008 ft | 446 kts | 208° |
| 2026-05-03 21:26 | -17.68766 | -39.78660 | 40012 ft | 451 kts | 208° |
| 2026-05-03 21:26 | -17.74309 | -39.81818 | 40016 ft | 455 kts | 208° |
| 2026-05-03 21:27 | -17.79902 | -39.85007 | 40012 ft | 460 kts | 208° |
| 2026-05-03 21:27 | -17.85545 | -39.88226 | 40007 ft | 464 kts | 208° |
| 2026-05-03 21:28 | -17.91240 | -39.91478 | 40010 ft | 467 kts | 208° |
| 2026-05-03 21:28 | -17.96975 | -39.94755 | 40014 ft | 471 kts | 208° |
| 2026-05-03 21:29 | -18.02748 | -39.98053 | 40011 ft | 474 kts | 208° |
| 2026-05-03 21:29 | -18.08530 | -40.01321 | 40007 ft | 477 kts | 208° |
| 2026-05-03 21:30 | -18.14382 | -40.04649 | 40009 ft | 479 kts | 208° |
| 2026-05-03 21:30 | -18.20261 | -40.07986 | 40012 ft | 482 kts | 208° |
| 2026-05-03 21:31 | -18.26179 | -40.11351 | 40013 ft | 484 kts | 208° |
| 2026-05-03 21:31 | -18.32121 | -40.14732 | 40011 ft | 486 kts | 208° |
| 2026-05-03 21:32 | -18.38087 | -40.18129 | 40008 ft | 489 kts | 208° |
| 2026-05-03 21:32 | -18.44075 | -40.21542 | 40008 ft | 491 kts | 208° |
| 2026-05-03 21:33 | -18.50090 | -40.24972 | 40008 ft | 492 kts | 208° |
| 2026-05-03 21:33 | -18.56124 | -40.28416 | 40008 ft | 494 kts | 208° |
| 2026-05-03 21:34 | -18.62175 | -40.31873 | 40010 ft | 496 kts | 208° |
| 2026-05-03 21:34 | -18.68244 | -40.35343 | 40011 ft | 497 kts | 208° |
| 2026-05-03 21:35 | -18.74326 | -40.38822 | 40012 ft | 498 kts | 208° |
| 2026-05-03 21:35 | -18.80423 | -40.42314 | 40008 ft | 499 kts | 208° |
| 2026-05-03 21:36 | -18.85493 | -40.45220 | 40010 ft | 500 kts | 208° |
| 2026-05-03 21:36 | -18.91608 | -40.48727 | 40010 ft | 500 kts | 208° |
| 2026-05-03 21:37 | -18.98724 | -40.52812 | 40010 ft | 501 kts | 208° |
| 2026-05-03 21:37 | -19.03855 | -40.55760 | 40009 ft | 501 kts | 208° |
| 2026-05-03 21:38 | -19.09988 | -40.59286 | 40009 ft | 502 kts | 208° |
| 2026-05-03 21:38 | -19.16130 | -40.62821 | 40011 ft | 502 kts | 208° |
| 2026-05-03 21:39 | -19.22270 | -40.66357 | 40010 ft | 503 kts | 208° |
| 2026-05-03 21:39 | -19.28377 | -40.69878 | 40009 ft | 503 kts | 208° |
| 2026-05-03 21:40 | -19.34528 | -40.73426 | 40012 ft | 504 kts | 208° |
| 2026-05-03 21:40 | -19.40686 | -40.76982 | 40011 ft | 504 kts | 208° |
| 2026-05-03 21:41 | -19.46849 | -40.80544 | 40010 ft | 504 kts | 208° |
| 2026-05-03 21:41 | -19.53011 | -40.84109 | 40010 ft | 504 kts | 208° |
| 2026-05-03 21:42 | -19.59168 | -40.87674 | 40011 ft | 504 kts | 208° |
| 2026-05-03 21:42 | -19.65325 | -40.91255 | 40011 ft | 504 kts | 209° |
| 2026-05-03 21:43 | -19.71481 | -40.94835 | 40011 ft | 504 kts | 208° |
| 2026-05-03 21:43 | -19.77633 | -40.98417 | 40010 ft | 505 kts | 209° |
| 2026-05-03 21:44 | -19.83788 | -41.02003 | 40008 ft | 505 kts | 209° |
| 2026-05-03 21:44 | -19.89941 | -41.05600 | 40009 ft | 505 kts | 209° |
| 2026-05-03 21:45 | -19.96085 | -41.09217 | 40009 ft | 505 kts | 209° |
| 2026-05-03 21:45 | -20.02232 | -41.12824 | 40010 ft | 505 kts | 209° |
| 2026-05-03 21:46 | -20.08378 | -41.16443 | 40011 ft | 505 kts | 209° |
| 2026-05-03 21:46 | -20.14529 | -41.20062 | 40011 ft | 505 kts | 209° |
| 2026-05-03 21:47 | -20.20677 | -41.23687 | 40009 ft | 506 kts | 209° |
| 2026-05-03 21:47 | -20.26838 | -41.27321 | 40011 ft | 506 kts | 209° |
| 2026-05-03 21:48 | -20.32995 | -41.30956 | 40011 ft | 506 kts | 209° |
| 2026-05-03 21:48 | -20.39151 | -41.34595 | 40009 ft | 506 kts | 209° |
| 2026-05-03 21:49 | -20.45272 | -41.38216 | 40010 ft | 506 kts | 209° |
| 2026-05-03 21:49 | -20.51433 | -41.41861 | 40011 ft | 506 kts | 209° |
| 2026-05-03 21:50 | -20.57608 | -41.45477 | 40009 ft | 507 kts | 209° |
| 2026-05-03 21:50 | -20.63785 | -41.49114 | 40010 ft | 507 kts | 209° |
| 2026-05-03 21:51 | -20.69960 | -41.52746 | 40010 ft | 507 kts | 209° |
| 2026-05-03 21:51 | -20.76138 | -41.56386 | 40011 ft | 507 kts | 209° |
| 2026-05-03 21:52 | -20.82312 | -41.60026 | 40011 ft | 507 kts | 209° |
| 2026-05-03 21:52 | -20.88487 | -41.63670 | 40008 ft | 507 kts | 209° |
| 2026-05-03 21:53 | -20.94665 | -41.67321 | 40009 ft | 507 kts | 209° |
| 2026-05-03 21:53 | -21.00840 | -41.70972 | 40010 ft | 507 kts | 209° |
| 2026-05-03 21:54 | -21.06976 | -41.74604 | 40010 ft | 507 kts | 209° |
| 2026-05-03 21:54 | -21.13154 | -41.78264 | 40011 ft | 507 kts | 209° |
| 2026-05-03 21:55 | -21.19331 | -41.81927 | 40011 ft | 507 kts | 209° |
| 2026-05-03 21:55 | -21.25504 | -41.85591 | 40011 ft | 507 kts | 209° |
| 2026-05-03 21:56 | -21.31680 | -41.89260 | 40012 ft | 507 kts | 209° |
| 2026-05-03 21:56 | -21.37852 | -41.92931 | 40009 ft | 507 kts | 209° |
| 2026-05-03 21:57 | -21.44026 | -41.96607 | 40010 ft | 507 kts | 209° |
| 2026-05-03 21:57 | -21.50201 | -42.00287 | 40010 ft | 508 kts | 209° |
| 2026-05-03 21:58 | -21.56374 | -42.03969 | 40006 ft | 508 kts | 209° |
| 2026-05-03 21:58 | -21.62548 | -42.07655 | 39905 ft | 507 kts | 209° |
| 2026-05-03 21:59 | -21.65656 | -42.09512 | 38850 ft | 512 kts | 209° |
| 2026-05-03 21:59 | -21.68736 | -42.11354 | 38497 ft | 506 kts | 209° |
| 2026-05-03 21:59 | -21.71841 | -42.13211 | 37849 ft | 517 kts | 209° |
| 2026-05-03 21:59 | -21.75020 | -42.15113 | 37141 ft | 528 kts | 209° |
| 2026-05-03 22:00 | -21.78248 | -42.17045 | 36400 ft | 532 kts | 209° |
| 2026-05-03 22:00 | -21.81477 | -42.18980 | 35638 ft | 531 kts | 209° |
| 2026-05-03 22:00 | -21.84571 | -42.21073 | 35502 ft | 520 kts | 219° |
| 2026-05-03 22:00 | -21.87224 | -42.23712 | 35251 ft | 523 kts | 229° |
| 2026-05-03 22:01 | -21.89441 | -42.26874 | 34462 ft | 534 kts | 237° |
| 2026-05-03 22:01 | -21.91402 | -42.30266 | 33624 ft | 533 kts | 239° |
| 2026-05-03 22:01 | -21.93257 | -42.33714 | 32770 ft | 531 kts | 239° |
| 2026-05-03 22:01 | -21.95205 | -42.37088 | 31879 ft | 529 kts | 236° |
| 2026-05-03 22:02 | -21.97300 | -42.40345 | 30948 ft | 528 kts | 235° |
| 2026-05-03 22:02 | -21.99358 | -42.43615 | 29981 ft | 528 kts | 237° |
| 2026-05-03 22:02 | -22.01316 | -42.46954 | 29021 ft | 525 kts | 238° |
| 2026-05-03 22:02 | -22.03255 | -42.50255 | 28087 ft | 517 kts | 237° |
| 2026-05-03 22:03 | -22.05222 | -42.53468 | 27178 ft | 510 kts | 236° |
| 2026-05-03 22:03 | -22.07167 | -42.56628 | 26286 ft | 502 kts | 237° |
| 2026-05-03 22:03 | -22.09052 | -42.59766 | 25409 ft | 495 kts | 237° |
| 2026-05-03 22:03 | -22.10897 | -42.62863 | 24548 ft | 487 kts | 237° |
| 2026-05-03 22:04 | -22.12728 | -42.65899 | 23702 ft | 479 kts | 237° |
| 2026-05-03 22:04 | -22.14539 | -42.68885 | 22872 ft | 471 kts | 237° |
| 2026-05-03 22:04 | -22.16310 | -42.71823 | 22059 ft | 463 kts | 237° |
| 2026-05-03 22:04 | -22.18047 | -42.74720 | 21260 ft | 456 kts | 237° |
| 2026-05-03 22:05 | -22.19754 | -42.77562 | 20478 ft | 448 kts | 237° |
| 2026-05-03 22:05 | -22.21437 | -42.80357 | 19709 ft | 440 kts | 237° |
| 2026-05-03 22:05 | -22.23087 | -42.83101 | 18957 ft | 432 kts | 237° |
| 2026-05-03 22:05 | -22.24709 | -42.85805 | 18218 ft | 425 kts | 237° |
| 2026-05-03 22:06 | -22.26286 | -42.88434 | 17502 ft | 422 kts | 237° |
| 2026-05-03 22:06 | -22.27876 | -42.91084 | 16779 ft | 419 kts | 237° |
| 2026-05-03 22:06 | -22.29452 | -42.93712 | 16063 ft | 413 kts | 237° |
| 2026-05-03 22:06 | -22.30999 | -42.96293 | 15362 ft | 405 kts | 237° |
| 2026-05-03 22:07 | -22.32515 | -42.98825 | 14676 ft | 400 kts | 237° |
| 2026-05-03 22:07 | -22.34023 | -43.01345 | 13994 ft | 398 kts | 237° |
| 2026-05-03 22:07 | -22.35523 | -43.03850 | 13318 ft | 395 kts | 237° |
| 2026-05-03 22:07 | -22.36994 | -43.06309 | 12652 ft | 386 kts | 237° |
| 2026-05-03 22:08 | -22.38441 | -43.08731 | 12021 ft | 382 kts | 237° |
| 2026-05-03 22:08 | -22.39849 | -43.11087 | 11504 ft | 373 kts | 237° |
| 2026-05-03 22:08 | -22.41273 | -43.13471 | 11026 ft | 371 kts | 237° |
| 2026-05-03 22:08 | -22.42631 | -43.15744 | 10878 ft | 349 kts | 237° |
| 2026-05-03 22:09 | -22.43905 | -43.17880 | 10755 ft | 328 kts | 237° |
| 2026-05-03 22:09 | -22.45105 | -43.19892 | 10634 ft | 309 kts | 237° |
| 2026-05-03 22:09 | -22.46235 | -43.21786 | 10517 ft | 291 kts | 237° |
| 2026-05-03 22:10 | -22.48441 | -43.25487 | 10217 ft | 297 kts | 237° |
| 2026-05-03 22:10 | -22.49540 | -43.27332 | 9941 ft | 289 kts | 237° |
| 2026-05-03 22:10 | -22.50634 | -43.29168 | 9667 ft | 292 kts | 237° |
| 2026-05-03 22:10 | -22.51733 | -43.31015 | 9380 ft | 292 kts | 237° |
| 2026-05-03 22:11 | -22.52830 | -43.32859 | 9092 ft | 289 kts | 237° |
| 2026-05-03 22:11 | -22.53899 | -43.34656 | 8804 ft | 279 kts | 237° |
| 2026-05-03 22:11 | -22.54940 | -43.36406 | 8419 ft | 274 kts | 237° |
| 2026-05-03 22:11 | -22.55945 | -43.38097 | 8135 ft | 270 kts | 237° |
| 2026-05-03 22:12 | -22.56966 | -43.39814 | 7864 ft | 272 kts | 237° |
| 2026-05-03 22:12 | -22.57987 | -43.41533 | 7591 ft | 271 kts | 237° |
| 2026-05-03 22:12 | -22.59006 | -43.43249 | 7321 ft | 270 kts | 237° |
| 2026-05-03 22:12 | -22.60021 | -43.44958 | 7051 ft | 269 kts | 237° |
| 2026-05-03 22:13 | -22.61031 | -43.46658 | 6780 ft | 268 kts | 236° |
| 2026-05-03 22:13 | -22.62303 | -43.48095 | 6514 ft | 267 kts | 211° |
| 2026-05-03 22:13 | -22.64017 | -43.48746 | 6249 ft | 259 kts | 184° |
| 2026-05-03 22:13 | -22.65760 | -43.48507 | 5843 ft | 251 kts | 159° |
| 2026-05-03 22:14 | -22.67190 | -43.47490 | 5395 ft | 243 kts | 134° |
| 2026-05-03 22:14 | -22.68173 | -43.46097 | 4973 ft | 222 kts | 126° |
| 2026-05-03 22:14 | -22.69028 | -43.44799 | 4593 ft | 202 kts | 126° |
| 2026-05-03 22:14 | -22.69805 | -43.43617 | 4248 ft | 184 kts | 126° |
| 2026-05-03 22:15 | -22.70522 | -43.42539 | 3931 ft | 169 kts | 127° |
| 2026-05-03 22:15 | -22.71190 | -43.41534 | 3640 ft | 161 kts | 127° |
| 2026-05-03 22:15 | -22.71840 | -43.40556 | 3359 ft | 159 kts | 127° |
| 2026-05-03 22:15 | -22.72483 | -43.39587 | 3087 ft | 157 kts | 127° |
| 2026-05-03 22:16 | -22.73114 | -43.38636 | 2818 ft | 155 kts | 127° |
| 2026-05-03 22:16 | -22.73747 | -43.37682 | 2541 ft | 156 kts | 127° |
| 2026-05-03 22:16 | -22.74375 | -43.36736 | 2265 ft | 154 kts | 127° |
| 2026-05-03 22:16 | -22.74998 | -43.35797 | 1993 ft | 154 kts | 127° |
| 2026-05-03 22:17 | -22.75617 | -43.34863 | 1752 ft | 151 kts | 127° |
| 2026-05-03 22:17 | -22.76232 | -43.33935 | 1552 ft | 152 kts | 127° |
| 2026-05-03 22:17 | -22.76846 | -43.33000 | 1333 ft | 153 kts | 126° |
| 2026-05-03 22:17 | -22.77459 | -43.32067 | 1090 ft | 152 kts | 126° |
| 2026-05-03 22:18 | -22.78071 | -43.31146 | 882 ft | 148 kts | 127° |
| 2026-05-03 22:18 | -22.78669 | -43.30245 | 718 ft | 146 kts | 127° |
| 2026-05-03 22:18 | -22.79260 | -43.29347 | 569 ft | 146 kts | 126° |
| 2026-05-03 22:18 | -22.79851 | -43.28450 | 402 ft | 146 kts | 127° |
| 2026-05-03 22:19 | -22.80444 | -43.27557 | 232 ft | 145 kts | 127° |
| 2026-05-03 22:19 | -22.81031 | -43.26675 | 123 ft | 144 kts | 127° |
| 2026-05-03 22:19 | -22.81602 | -43.25822 | 32 ft | 128 kts | 126° |
| 2026-05-03 22:19 | -22.82005 | -43.25217 | 32 ft | 68 kts | 126° |
| 2026-05-03 22:20 | -22.82245 | -43.24856 | 25 ft | 55 kts | 126° |
| 2026-05-03 22:20 | -22.82354 | -43.24595 | 25 ft | 24 kts | 97° |
| 2026-05-03 22:20 | -22.82362 | -43.24534 | 25 ft | 0 kts | 97° |
| 2026-05-03 22:20 | -22.82362 | -43.24533 | 25 ft | 1 kts | 97° |